createdAt,value
2018-12-08T00:00:24.121Z,52.26
2018-12-08T00:01:26.592Z,52.81
2018-12-08T00:03:30.847Z,52.76
2018-12-08T00:04:33.323Z,52.31
2018-12-08T00:05:35.868Z,52.33
2018-12-08T00:06:38.355Z,52.48
2018-12-08T00:07:40.817Z,53.00
2018-12-08T00:08:43.286Z,52.67
2018-12-08T00:09:45.763Z,53.10
2018-12-08T00:10:48.247Z,52.93
2018-12-08T00:11:50.758Z,53.31
2018-12-08T00:12:53.232Z,53.01
2018-12-08T00:13:55.688Z,53.18
2018-12-08T00:14:58.181Z,53.67
2018-12-08T00:16:00.681Z,52.92
2018-12-08T00:17:03.217Z,53.45
2018-12-08T00:18:05.721Z,52.94
2018-12-08T00:19:08.189Z,53.84
2018-12-08T00:20:10.665Z,53.78
2018-12-08T00:21:13.134Z,53.48
2018-12-08T00:22:15.631Z,53.94
2018-12-08T00:23:18.102Z,53.50
2018-12-08T00:24:20.568Z,53.72
2018-12-08T00:25:23.028Z,54.47
2018-12-08T00:26:25.505Z,54.08
2018-12-08T00:27:28.013Z,53.34
2018-12-08T00:28:30.505Z,53.98
2018-12-08T00:29:33.002Z,53.55
2018-12-08T00:30:47.517Z,54.33
2018-12-08T00:31:49.980Z,53.45
2018-12-08T00:32:52.478Z,53.89
2018-12-08T00:33:54.944Z,53.57
2018-12-08T00:34:57.422Z,53.88
2018-12-08T00:35:59.972Z,53.99
2018-12-08T00:37:02.462Z,53.84
2018-12-08T00:38:04.947Z,53.55
2018-12-08T00:39:07.798Z,53.47
2018-12-08T00:40:10.285Z,54.15
2018-12-08T00:41:12.774Z,53.56
2018-12-08T00:42:15.242Z,53.60
2018-12-08T00:43:17.818Z,53.79
2018-12-08T00:44:20.337Z,53.03
2018-12-08T00:45:22.823Z,53.61
2018-12-08T00:46:25.310Z,53.86
2018-12-08T00:47:27.784Z,53.71
2018-12-08T00:48:30.278Z,53.57
2018-12-08T00:49:32.741Z,54.38
2018-12-08T00:50:35.211Z,53.79
2018-12-08T00:51:37.687Z,54.01
2018-12-08T00:52:40.220Z,53.82
2018-12-08T00:53:42.719Z,53.34
2018-12-08T00:54:45.199Z,53.29
2018-12-08T00:55:47.674Z,53.53
2018-12-08T00:56:50.128Z,53.49
2018-12-08T00:57:52.621Z,53.89
2018-12-08T00:58:55.123Z,54.12
2018-12-08T00:59:57.598Z,53.50
2018-12-08T01:01:00.079Z,53.71
2018-12-08T01:02:02.552Z,53.85
2018-12-08T01:03:05.045Z,53.63
2018-12-08T01:04:07.576Z,53.52
2018-12-08T01:05:10.212Z,53.47
2018-12-08T01:06:12.689Z,53.44
2018-12-08T01:07:15.162Z,53.59
2018-12-08T01:08:17.624Z,53.50
2018-12-08T01:09:20.119Z,53.83
2018-12-08T01:10:22.599Z,53.19
2018-12-08T01:11:25.236Z,53.61
2018-12-08T01:12:27.715Z,53.25
2018-12-08T01:13:30.186Z,54.30
2018-12-08T01:14:32.678Z,53.52
2018-12-08T01:15:35.138Z,53.79
2018-12-08T01:16:37.591Z,53.33
2018-12-08T01:17:40.063Z,53.72
2018-12-08T01:18:42.544Z,53.69
2018-12-08T01:19:45.021Z,53.79
2018-12-08T01:20:47.502Z,53.56
2018-12-08T01:21:49.960Z,53.82
2018-12-08T01:22:52.435Z,52.99
2018-12-08T01:23:54.896Z,53.71
2018-12-08T01:24:57.393Z,53.55
2018-12-08T01:25:59.863Z,53.78
2018-12-08T01:27:02.341Z,53.75
2018-12-08T01:28:04.799Z,53.33
2018-12-08T01:29:07.285Z,53.36
2018-12-08T01:30:09.915Z,54.03
2018-12-08T01:31:12.398Z,53.33
2018-12-08T01:32:14.866Z,54.30
2018-12-08T01:33:17.338Z,54.13
2018-12-08T01:34:19.827Z,53.73
2018-12-08T01:35:22.322Z,53.54
2018-12-08T01:36:24.804Z,53.43
2018-12-08T01:37:27.276Z,54.03
2018-12-08T01:38:29.751Z,54.22
2018-12-08T01:39:32.243Z,53.77
2018-12-08T01:40:34.747Z,53.33
2018-12-08T01:41:37.233Z,53.82
2018-12-08T01:42:39.787Z,52.75
2018-12-08T01:43:42.325Z,53.42
2018-12-08T01:44:44.910Z,53.11
2018-12-08T01:45:47.421Z,53.08
2018-12-08T01:46:49.914Z,53.38
2018-12-08T01:47:52.406Z,53.29
2018-12-08T01:48:54.915Z,53.06
2018-12-08T01:49:57.387Z,52.64
2018-12-08T01:50:59.883Z,53.25
2018-12-08T01:52:02.354Z,52.64
2018-12-08T01:53:04.853Z,53.34
2018-12-08T01:54:07.330Z,53.21
2018-12-08T01:55:09.801Z,52.90
2018-12-08T01:56:12.284Z,53.10
2018-12-08T01:57:14.758Z,52.92
2018-12-08T01:58:17.228Z,53.30
2018-12-08T01:59:19.717Z,53.60
2018-12-08T02:00:22.194Z,53.46
2018-12-08T02:01:24.705Z,53.59
2018-12-08T02:02:27.167Z,53.73
2018-12-08T02:03:29.642Z,54.15
2018-12-08T02:04:32.142Z,53.84
2018-12-08T02:05:34.783Z,53.68
2018-12-08T02:06:37.291Z,53.64
2018-12-08T02:07:39.817Z,53.83
2018-12-08T02:08:42.305Z,53.54
2018-12-08T02:09:44.790Z,53.70
2018-12-08T02:10:47.258Z,54.14
2018-12-08T02:11:50.270Z,53.90
2018-12-08T02:12:52.764Z,53.71
2018-12-08T02:13:55.216Z,53.43
2018-12-08T02:14:57.708Z,54.21
2018-12-08T02:16:00.183Z,53.54
2018-12-08T02:17:02.693Z,54.17
2018-12-08T02:18:05.152Z,53.59
2018-12-08T02:19:07.622Z,54.08
2018-12-08T02:20:10.100Z,53.58
2018-12-08T02:21:12.589Z,54.19
2018-12-08T02:22:15.093Z,54.25
2018-12-08T02:23:17.563Z,53.92
2018-12-08T02:24:20.030Z,53.95
2018-12-08T02:25:22.516Z,54.03
2018-12-08T02:26:25.013Z,53.71
2018-12-08T02:27:27.510Z,53.59
2018-12-08T02:28:29.963Z,53.76
2018-12-08T02:29:32.511Z,53.85
2018-12-08T02:30:34.971Z,54.05
2018-12-08T02:31:37.447Z,53.26
2018-12-08T02:32:39.957Z,53.91
2018-12-08T02:33:42.447Z,53.61
2018-12-08T02:34:44.954Z,53.17
2018-12-08T02:35:47.430Z,53.93
2018-12-08T02:36:49.899Z,53.70
2018-12-08T02:37:52.423Z,53.71
2018-12-08T02:38:54.896Z,53.93
2018-12-08T02:39:57.363Z,53.82
2018-12-08T02:40:59.842Z,53.97
2018-12-08T02:42:02.387Z,53.77
2018-12-08T02:43:04.875Z,53.59
2018-12-08T02:44:07.370Z,54.01
2018-12-08T02:45:09.854Z,53.65
2018-12-08T02:46:12.330Z,53.71
2018-12-08T02:47:14.891Z,53.21
2018-12-08T02:48:17.382Z,54.01
2018-12-08T02:49:19.851Z,54.67
2018-12-08T02:50:22.573Z,54.70
2018-12-08T02:51:25.128Z,53.96
2018-12-08T02:52:27.607Z,54.46
2018-12-08T02:53:30.112Z,54.15
2018-12-08T02:54:32.599Z,53.63
2018-12-08T02:55:35.093Z,54.02
2018-12-08T02:56:37.552Z,53.48
2018-12-08T02:57:40.004Z,53.02
2018-12-08T02:58:42.491Z,53.36
2018-12-08T02:59:44.962Z,54.33
2018-12-08T03:00:47.421Z,53.61
2018-12-08T03:01:49.890Z,54.04
2018-12-08T03:02:52.366Z,54.22
2018-12-08T03:03:54.856Z,53.59
2018-12-08T03:04:57.314Z,53.57
2018-12-08T03:05:59.772Z,53.95
2018-12-08T03:07:02.238Z,54.42
2018-12-08T03:08:04.697Z,53.68
2018-12-08T03:09:07.888Z,53.99
2018-12-08T03:10:10.490Z,53.93
2018-12-08T03:11:12.977Z,53.67
2018-12-08T03:12:15.446Z,53.87
2018-12-08T03:13:17.928Z,53.69
2018-12-08T03:14:20.542Z,54.12
2018-12-08T03:15:23.229Z,53.90
2018-12-08T03:16:25.692Z,53.75
2018-12-08T03:17:28.389Z,53.98
2018-12-08T03:18:30.843Z,53.99
2018-12-08T03:19:33.346Z,53.62
2018-12-08T03:20:35.831Z,53.37
2018-12-08T03:21:38.322Z,53.25
2018-12-08T03:22:40.780Z,53.45
2018-12-08T03:23:43.332Z,53.38
2018-12-08T03:24:45.891Z,53.26
2018-12-08T03:25:48.377Z,53.78
2018-12-08T03:26:50.889Z,53.57
2018-12-08T03:27:53.382Z,53.18
2018-12-08T03:28:55.870Z,53.58
2018-12-08T03:29:58.348Z,53.24
2018-12-08T03:31:00.887Z,53.12
2018-12-08T03:32:03.420Z,53.46
2018-12-08T03:33:06.177Z,53.15
2018-12-08T03:34:08.796Z,53.12
2018-12-08T03:35:11.375Z,53.72
2018-12-08T03:36:13.852Z,53.41
2018-12-08T03:37:16.341Z,53.01
2018-12-08T03:38:18.833Z,52.98
2018-12-08T03:39:21.310Z,53.29
2018-12-08T03:40:23.804Z,53.64
2018-12-08T03:41:26.344Z,54.11
2018-12-08T03:42:29.050Z,53.34
2018-12-08T03:43:31.527Z,53.72
2018-12-08T03:44:33.993Z,53.31
2018-12-08T03:45:36.487Z,52.96
2018-12-08T03:46:38.939Z,53.54
2018-12-08T03:47:41.406Z,53.46
2018-12-08T03:48:43.879Z,53.50
2018-12-08T03:49:46.332Z,53.87
2018-12-08T03:50:48.805Z,53.63
2018-12-08T03:51:51.293Z,53.44
2018-12-08T03:52:53.764Z,53.21
2018-12-08T03:53:56.229Z,53.52
2018-12-08T03:54:58.718Z,53.74
2018-12-08T03:56:01.211Z,53.15
2018-12-08T03:57:03.764Z,53.39
2018-12-08T03:58:06.234Z,53.33
2018-12-08T03:59:08.721Z,53.74
2018-12-08T04:00:11.362Z,53.58
2018-12-08T04:01:13.916Z,54.07
2018-12-08T04:02:16.395Z,53.46
2018-12-08T04:03:18.919Z,53.61
2018-12-08T04:04:21.419Z,53.17
2018-12-08T04:05:23.924Z,53.55
2018-12-08T04:06:26.491Z,53.22
2018-12-08T04:07:28.985Z,53.89
2018-12-08T04:08:31.462Z,53.59
2018-12-08T04:09:33.950Z,53.25
2018-12-08T04:10:36.510Z,52.86
2018-12-08T04:11:39.023Z,53.20
2018-12-08T04:12:41.490Z,53.00
2018-12-08T04:13:44.086Z,53.64
2018-12-08T04:14:46.697Z,53.59
2018-12-08T04:15:49.181Z,53.51
2018-12-08T04:16:51.809Z,53.30
2018-12-08T04:17:54.289Z,53.94
2018-12-08T04:18:56.749Z,53.48
2018-12-08T04:19:59.226Z,53.72
2018-12-08T04:21:01.686Z,53.63
2018-12-08T04:22:04.202Z,53.74
2018-12-08T04:23:06.680Z,53.99
2018-12-08T04:24:09.156Z,53.53
2018-12-08T04:25:11.654Z,54.05
2018-12-08T04:26:14.130Z,53.64
2018-12-08T04:27:16.635Z,53.81
2018-12-08T04:28:19.111Z,54.01
2018-12-08T04:29:21.578Z,53.26
2018-12-08T04:30:24.208Z,54.14
2018-12-08T04:31:26.676Z,53.38
2018-12-08T04:32:29.183Z,53.84
2018-12-08T04:33:31.701Z,53.91
2018-12-08T04:34:34.169Z,52.92
2018-12-08T04:35:36.645Z,53.53
2018-12-08T04:36:39.136Z,53.65
2018-12-08T04:37:41.631Z,53.84
2018-12-08T04:38:44.158Z,53.09
2018-12-08T04:39:46.632Z,53.29
2018-12-08T04:40:49.100Z,53.56
2018-12-08T04:41:51.569Z,53.48
2018-12-08T04:42:54.066Z,53.47
2018-12-08T04:43:56.552Z,53.96
2018-12-08T04:44:59.028Z,53.69
2018-12-08T04:46:01.514Z,53.65
2018-12-08T04:47:04.001Z,53.45
2018-12-08T04:48:06.562Z,53.62
2018-12-08T04:49:09.048Z,54.31
2018-12-08T04:50:11.503Z,53.72
2018-12-08T04:51:13.966Z,53.75
2018-12-08T04:52:16.453Z,53.58
2018-12-08T04:53:18.969Z,53.40
2018-12-08T04:54:21.456Z,53.36
2018-12-08T04:55:24.173Z,53.28
2018-12-08T04:56:26.667Z,53.54
2018-12-08T04:57:29.143Z,53.55
2018-12-08T04:58:31.635Z,53.95
2018-12-08T04:59:34.154Z,53.73
2018-12-08T05:00:36.613Z,53.69
2018-12-08T05:01:39.090Z,54.19
2018-12-08T05:02:41.562Z,53.90
2018-12-08T05:03:44.126Z,54.01
2018-12-08T05:04:46.665Z,53.77
2018-12-08T05:05:49.120Z,53.59
2018-12-08T05:06:51.600Z,53.95
2018-12-08T05:07:54.089Z,53.77
2018-12-08T05:08:56.578Z,53.95
2018-12-08T05:09:59.073Z,53.53
2018-12-08T05:11:01.542Z,53.47
2018-12-08T05:12:04.071Z,53.98
2018-12-08T05:13:06.607Z,53.11
2018-12-08T05:14:09.114Z,53.91
2018-12-08T05:15:11.601Z,53.58
2018-12-08T05:16:14.092Z,53.89
2018-12-08T05:17:16.562Z,54.30
2018-12-08T05:18:19.034Z,53.74
2018-12-08T05:19:21.530Z,54.21
2018-12-08T05:20:24.012Z,54.74
2018-12-08T05:21:26.485Z,54.25
2018-12-08T05:22:28.971Z,54.57
2018-12-08T05:23:31.517Z,54.51
2018-12-08T05:24:34.112Z,54.71
2018-12-08T05:25:36.596Z,54.72
2018-12-08T05:26:39.078Z,55.45
2018-12-08T05:27:41.545Z,55.68
2018-12-08T05:28:44.022Z,55.60
2018-12-08T05:29:46.532Z,55.50
2018-12-08T05:30:49.010Z,55.90
2018-12-08T05:31:51.478Z,56.17
2018-12-08T05:32:53.975Z,56.17
2018-12-08T05:33:56.442Z,55.85
2018-12-08T05:34:58.930Z,56.33
2018-12-08T05:36:01.452Z,56.39
2018-12-08T05:37:04.016Z,56.48
2018-12-08T05:38:06.502Z,56.38
2018-12-08T05:39:09.053Z,57.13
2018-12-08T05:40:11.614Z,57.23
2018-12-08T05:41:14.109Z,56.68
2018-12-08T05:42:16.601Z,56.65
2018-12-08T05:43:19.056Z,57.44
2018-12-08T05:44:21.534Z,56.86
2018-12-08T05:45:24.022Z,57.30
2018-12-08T05:46:26.509Z,57.06
2018-12-08T05:47:28.982Z,57.69
2018-12-08T05:48:31.432Z,57.57
2018-12-08T05:49:33.929Z,57.58
2018-12-08T05:50:36.497Z,57.40
2018-12-08T05:51:38.956Z,57.72
2018-12-08T05:52:41.443Z,57.86
2018-12-08T05:53:43.910Z,57.38
2018-12-08T05:54:46.383Z,57.90
2018-12-08T05:55:48.875Z,58.55
2018-12-08T05:56:51.351Z,58.40
2018-12-08T05:57:53.829Z,57.99
2018-12-08T05:58:56.312Z,58.09
2018-12-08T05:59:58.779Z,58.38
2018-12-08T06:01:01.330Z,57.81
2018-12-08T06:02:03.867Z,57.67
2018-12-08T06:03:06.342Z,57.69
2018-12-08T06:04:08.816Z,58.22
2018-12-08T06:05:11.304Z,58.42
2018-12-08T06:06:13.794Z,57.82
2018-12-08T06:07:16.266Z,58.00
2018-12-08T06:08:18.724Z,58.59
2018-12-08T06:09:21.185Z,58.73
2018-12-08T06:10:23.668Z,58.58
2018-12-08T06:11:26.159Z,58.55
2018-12-08T06:12:28.645Z,58.67
2018-12-08T06:13:31.134Z,58.36
2018-12-08T06:14:33.607Z,58.16
2018-12-08T06:15:36.078Z,58.66
2018-12-08T06:16:38.575Z,58.64
2018-12-08T06:17:41.125Z,58.74
2018-12-08T06:18:43.626Z,58.27
2018-12-08T06:19:46.114Z,58.48
2018-12-08T06:20:48.580Z,59.00
2018-12-08T06:21:51.136Z,58.59
2018-12-08T06:22:53.607Z,59.07
2018-12-08T06:23:56.079Z,58.88
2018-12-08T06:24:58.684Z,59.07
2018-12-08T06:26:01.158Z,58.53
2018-12-08T06:27:04.292Z,58.50
2018-12-08T06:28:09.737Z,58.65
2018-12-08T06:29:12.675Z,58.83
2018-12-08T06:30:15.146Z,58.84
2018-12-08T06:31:17.634Z,59.07
2018-12-08T06:32:20.130Z,58.49
2018-12-08T06:33:22.587Z,58.52
2018-12-08T06:34:25.641Z,58.24
2018-12-08T06:35:28.117Z,58.77
2018-12-08T06:36:30.602Z,58.74
2018-12-08T06:37:33.095Z,58.36
2018-12-08T06:38:36.014Z,58.73
2018-12-08T06:39:38.606Z,58.41
2018-12-08T06:40:41.087Z,58.62
2018-12-08T06:41:43.562Z,58.50
2018-12-08T06:42:46.181Z,58.88
2018-12-08T06:43:48.695Z,58.35
2018-12-08T06:44:51.542Z,58.88
2018-12-08T06:45:54.000Z,58.44
2018-12-08T06:46:56.486Z,58.46
2018-12-08T06:47:59.061Z,58.91
2018-12-08T06:49:01.535Z,58.69
2018-12-08T06:50:05.675Z,59.14
2018-12-08T06:51:08.148Z,58.82
2018-12-08T06:52:10.639Z,58.66
2018-12-08T06:53:13.150Z,58.99
2018-12-08T06:54:15.640Z,58.55
2018-12-08T06:55:18.100Z,58.55
2018-12-08T06:56:20.650Z,58.82
2018-12-08T06:57:23.128Z,59.07
2018-12-08T06:58:25.612Z,58.92
2018-12-08T06:59:28.087Z,58.85
2018-12-08T07:00:30.711Z,59.03
2018-12-08T07:01:33.195Z,58.93
2018-12-08T07:02:35.674Z,59.05
2018-12-08T07:03:38.158Z,59.06
2018-12-08T07:04:40.630Z,58.46
2018-12-08T07:05:43.174Z,59.23
2018-12-08T07:06:45.714Z,58.46
2018-12-08T07:07:48.196Z,58.47
2018-12-08T07:08:50.686Z,59.13
2018-12-08T07:09:53.145Z,59.11
2018-12-08T07:10:55.633Z,58.77
2018-12-08T07:11:58.103Z,59.20
2018-12-08T07:13:00.582Z,58.75
2018-12-08T07:14:03.089Z,58.78
2018-12-08T07:15:05.658Z,58.97
2018-12-08T07:16:08.116Z,58.96
2018-12-08T07:17:10.608Z,59.06
2018-12-08T07:18:13.169Z,58.76
2018-12-08T07:19:15.654Z,59.00
2018-12-08T07:20:18.122Z,59.55
2018-12-08T07:21:20.597Z,59.42
2018-12-08T07:22:23.195Z,59.15
2018-12-08T07:23:25.684Z,59.23
2018-12-08T07:24:28.152Z,59.44
2018-12-08T07:25:30.623Z,59.89
2018-12-08T07:26:33.142Z,59.89
2018-12-08T07:27:35.623Z,60.01
2018-12-08T07:28:38.165Z,59.95
2018-12-08T07:29:40.651Z,59.93
2018-12-08T07:30:43.145Z,59.84
2018-12-08T07:31:45.618Z,59.64
2018-12-08T07:32:48.094Z,59.88
2018-12-08T07:33:51.627Z,59.78
2018-12-08T07:34:54.122Z,59.63
2018-12-08T07:35:56.612Z,59.80
2018-12-08T07:36:59.101Z,59.65
2018-12-08T07:38:01.598Z,59.45
2018-12-08T07:39:05.321Z,59.24
2018-12-08T07:40:07.964Z,59.34
2018-12-08T07:41:10.439Z,59.18
2018-12-08T07:42:12.907Z,59.80
2018-12-08T07:43:15.379Z,59.53
2018-12-08T07:44:17.871Z,59.71
2018-12-08T07:45:20.361Z,60.16
2018-12-08T07:46:22.853Z,60.47
2018-12-08T07:47:25.325Z,60.02
2018-12-08T07:48:27.797Z,60.01
2018-12-08T07:49:30.252Z,60.46
2018-12-08T07:50:32.739Z,60.22
2018-12-08T07:51:35.207Z,60.16
2018-12-08T07:52:37.692Z,60.47
2018-12-08T07:53:40.179Z,59.79
2018-12-08T07:54:42.658Z,59.99
2018-12-08T07:55:45.142Z,59.74
2018-12-08T07:56:48.861Z,59.72
2018-12-08T07:57:51.344Z,59.55
2018-12-08T07:58:53.825Z,60.33
2018-12-08T07:59:56.275Z,59.85
2018-12-08T08:00:58.764Z,60.45
2018-12-08T08:02:01.279Z,60.18
2018-12-08T08:03:03.829Z,59.92
2018-12-08T08:04:06.298Z,58.19
2018-12-08T08:05:08.973Z,58.07
2018-12-08T08:06:11.670Z,57.36
2018-12-08T08:07:14.144Z,55.84
2018-12-08T08:08:16.610Z,54.28
2018-12-08T08:09:19.100Z,53.61
2018-12-08T08:10:21.581Z,53.48
2018-12-08T08:11:24.099Z,52.92
2018-12-08T08:12:26.573Z,52.54
2018-12-08T08:13:29.028Z,52.61
2018-12-08T08:14:31.574Z,52.55
2018-12-08T08:15:34.078Z,52.19
2018-12-08T08:16:36.584Z,51.80
2018-12-08T08:17:39.044Z,51.14
2018-12-08T08:18:41.515Z,52.00
2018-12-08T08:19:43.986Z,51.95
2018-12-08T08:20:46.449Z,51.79
2018-12-08T08:21:48.957Z,52.34
2018-12-08T08:22:51.495Z,51.50
2018-12-08T08:23:54.006Z,51.45
2018-12-08T08:24:56.507Z,51.01
2018-12-08T08:25:58.988Z,51.36
2018-12-08T08:27:01.558Z,51.00
2018-12-08T08:28:04.206Z,51.20
2018-12-08T08:29:06.675Z,51.56
2018-12-08T08:30:09.711Z,50.85
2018-12-08T08:31:12.206Z,51.00
2018-12-08T08:32:14.710Z,51.59
2018-12-08T08:33:17.186Z,51.05
2018-12-08T08:34:19.658Z,51.01
2018-12-08T08:35:22.149Z,51.72
2018-12-08T08:36:24.622Z,51.19
2018-12-08T08:37:27.246Z,51.22
2018-12-08T08:38:29.728Z,51.19
2018-12-08T08:39:32.198Z,51.08
2018-12-08T08:40:44.500Z,51.22
2018-12-08T08:41:46.999Z,51.72
2018-12-08T08:42:49.542Z,51.62
2018-12-08T08:43:52.022Z,51.15
2018-12-08T08:44:54.537Z,51.25
2018-12-08T08:45:57.019Z,51.38
2018-12-08T08:46:59.537Z,52.00
2018-12-08T08:48:02.040Z,51.25
2018-12-08T08:49:04.513Z,51.29
2018-12-08T08:50:08.462Z,51.85
2018-12-08T08:51:10.959Z,51.77
2018-12-08T08:52:13.436Z,51.83
2018-12-08T08:53:15.923Z,51.46
2018-12-08T08:54:18.394Z,51.34
2018-12-08T08:55:20.857Z,51.16
2018-12-08T08:56:23.438Z,51.37
2018-12-08T08:57:25.888Z,51.91
2018-12-08T08:58:28.374Z,51.57
2018-12-08T08:59:30.842Z,51.80
2018-12-08T09:00:33.296Z,51.20
2018-12-08T09:01:35.748Z,50.68
2018-12-08T09:02:38.249Z,50.63
2018-12-08T09:03:40.727Z,50.61
2018-12-08T09:04:43.199Z,50.72
2018-12-08T09:05:45.686Z,50.38
2018-12-08T09:06:48.167Z,50.03
2018-12-08T09:07:50.655Z,49.72
2018-12-08T09:08:53.716Z,49.35
2018-12-08T09:09:56.192Z,48.33
2018-12-08T09:10:58.656Z,48.35
2018-12-08T09:12:01.427Z,48.00
2018-12-08T09:13:03.953Z,47.77
2018-12-08T09:14:13.064Z,47.78
2018-12-08T09:15:10.977Z,48.04
2018-12-08T09:16:13.828Z,47.43
2018-12-08T09:17:16.280Z,47.76
2018-12-08T09:18:18.887Z,47.88
2018-12-08T09:19:21.404Z,47.78
2018-12-08T09:20:24.227Z,47.25
2018-12-08T09:21:26.978Z,47.78
2018-12-08T09:22:29.747Z,47.65
2018-12-08T09:23:32.611Z,47.65
2018-12-08T09:24:35.130Z,47.85
2018-12-08T09:25:37.916Z,47.29
2018-12-08T09:26:40.703Z,46.89
2018-12-08T09:27:43.575Z,47.34
2018-12-08T09:28:46.333Z,46.86
2018-12-08T09:29:48.850Z,46.96
2018-12-08T09:30:51.305Z,47.34
2018-12-08T09:31:54.115Z,47.37
2018-12-08T09:32:56.983Z,46.98
2018-12-08T09:33:59.515Z,46.89
2018-12-08T09:35:02.408Z,46.65
2018-12-08T09:36:05.339Z,47.31
2018-12-08T09:37:08.149Z,46.56
2018-12-08T09:38:10.705Z,47.16
2018-12-08T09:39:13.196Z,47.21
2018-12-08T09:40:15.695Z,47.00
2018-12-08T09:41:18.182Z,47.45
2018-12-08T09:42:20.638Z,47.20
2018-12-08T09:43:23.095Z,47.67
2018-12-08T09:44:25.585Z,47.86
2018-12-08T09:45:28.087Z,48.26
2018-12-08T09:46:30.577Z,47.87
2018-12-08T09:47:33.053Z,48.62
2018-12-08T09:48:36.225Z,48.17
2018-12-08T09:49:38.710Z,48.13
2018-12-08T09:50:41.206Z,48.03
2018-12-08T09:51:43.665Z,48.21
2018-12-08T09:52:50.088Z,48.04
2018-12-08T09:53:52.561Z,47.69
2018-12-08T09:54:55.017Z,47.53
2018-12-08T09:55:57.506Z,48.29
2018-12-08T09:56:59.962Z,48.30
2018-12-08T09:58:02.434Z,47.90
2018-12-08T09:59:04.903Z,47.96
2018-12-08T10:00:07.648Z,48.07
2018-12-08T10:01:10.191Z,47.82
2018-12-08T10:02:12.658Z,48.40
2018-12-08T10:03:15.144Z,47.97
2018-12-08T10:04:17.633Z,48.60
2018-12-08T10:05:20.106Z,48.07
2018-12-08T10:06:22.609Z,48.44
2018-12-08T10:07:25.069Z,48.96
2018-12-08T10:08:27.557Z,49.12
2018-12-08T10:09:30.031Z,48.67
2018-12-08T10:10:32.601Z,48.57
2018-12-08T10:11:35.102Z,49.00
2018-12-08T10:12:37.577Z,49.25
2018-12-08T10:13:40.063Z,49.60
2018-12-08T10:14:42.524Z,48.74
2018-12-08T10:15:45.096Z,49.22
2018-12-08T10:16:47.571Z,49.09
2018-12-08T10:17:50.024Z,49.25
2018-12-08T10:18:52.506Z,48.62
2018-12-08T10:19:54.974Z,48.91
2018-12-08T10:20:57.501Z,48.74
2018-12-08T10:21:59.991Z,49.07
2018-12-08T10:23:02.476Z,48.71
2018-12-08T10:24:04.996Z,48.90
2018-12-08T10:25:07.547Z,48.95
2018-12-08T10:26:10.043Z,49.19
2018-12-08T10:27:12.548Z,49.38
2018-12-08T10:28:15.005Z,49.09
2018-12-08T10:29:17.463Z,49.00
2018-12-08T10:30:20.002Z,50.37
2018-12-08T10:31:22.568Z,49.90
2018-12-08T10:32:25.071Z,50.02
2018-12-08T10:33:28.314Z,50.24
2018-12-08T10:34:30.919Z,49.82
2018-12-08T10:35:33.538Z,50.49
2018-12-08T10:36:36.005Z,49.64
2018-12-08T10:37:39.256Z,49.58
2018-12-08T10:38:41.737Z,50.13
2018-12-08T10:39:44.668Z,50.22
2018-12-08T10:40:47.323Z,49.78
2018-12-08T10:41:49.784Z,49.93
2018-12-08T10:42:52.287Z,49.82
2018-12-08T10:43:54.779Z,49.25
2018-12-08T10:44:57.274Z,49.18
2018-12-08T10:45:59.775Z,49.81
2018-12-08T10:47:02.291Z,48.66
2018-12-08T10:48:04.791Z,48.59
2018-12-08T10:49:07.454Z,49.02
2018-12-08T10:50:09.936Z,48.51
2018-12-08T10:51:12.408Z,48.80
2018-12-08T10:52:14.891Z,49.16
2018-12-08T10:53:17.395Z,49.20
2018-12-08T10:54:19.893Z,48.90
2018-12-08T10:55:22.374Z,49.29
2018-12-08T10:56:24.870Z,48.98
2018-12-08T10:57:27.357Z,49.10
2018-12-08T10:58:29.846Z,49.37
2018-12-08T10:59:32.331Z,48.85
2018-12-08T11:00:40.506Z,48.30
2018-12-08T11:01:48.617Z,48.47
2018-12-08T11:02:52.571Z,48.83
2018-12-08T11:03:55.071Z,48.25
2018-12-08T11:04:57.546Z,47.79
2018-12-08T11:06:00.019Z,47.72
2018-12-08T11:07:02.495Z,47.36
2018-12-08T11:08:04.975Z,47.36
2018-12-08T11:09:07.811Z,47.95
2018-12-08T11:10:10.359Z,47.52
2018-12-08T11:11:12.884Z,48.12
2018-12-08T11:12:15.377Z,48.05
2018-12-08T11:13:17.946Z,48.04
2018-12-08T11:14:20.460Z,48.36
2018-12-08T11:15:22.947Z,47.99
2018-12-08T11:16:25.432Z,48.40
2018-12-08T11:17:27.912Z,48.43
2018-12-08T11:18:30.375Z,48.91
2018-12-08T11:19:32.870Z,48.64
2018-12-08T11:20:35.350Z,49.27
2018-12-08T11:21:38.230Z,48.96
2018-12-08T11:22:40.719Z,49.37
2018-12-08T11:23:43.176Z,49.14
2018-12-08T11:24:45.671Z,48.98
2018-12-08T11:25:48.161Z,49.90
2018-12-08T11:26:50.678Z,49.20
2018-12-08T11:27:53.157Z,49.60
2018-12-08T11:28:55.635Z,50.12
2018-12-08T11:29:58.139Z,49.63
2018-12-08T11:31:00.631Z,50.25
2018-12-08T11:32:03.363Z,49.86
2018-12-08T11:33:05.843Z,50.07
2018-12-08T11:34:08.338Z,50.96
2018-12-08T11:35:10.840Z,50.38
2018-12-08T11:36:13.326Z,50.89
2018-12-08T11:38:17.691Z,50.40
2018-12-08T11:39:20.233Z,50.49
2018-12-08T11:40:22.800Z,50.24
2018-12-08T11:41:25.309Z,50.00
2018-12-08T11:42:27.907Z,50.64
2018-12-08T11:43:30.414Z,49.78
2018-12-08T11:44:33.122Z,50.13
2018-12-08T11:45:35.613Z,50.18
2018-12-08T11:46:38.819Z,49.66
2018-12-08T11:47:41.429Z,49.97
2018-12-08T11:48:43.921Z,49.99
2018-12-08T11:49:46.395Z,49.79
2018-12-08T11:50:48.962Z,49.90
2018-12-08T11:51:51.561Z,49.67
2018-12-08T11:52:54.139Z,50.27
2018-12-08T11:53:56.647Z,49.86
2018-12-08T11:54:59.127Z,49.65
2018-12-08T11:56:01.637Z,49.61
2018-12-08T11:57:04.137Z,49.42
2018-12-08T11:58:06.617Z,49.28
2018-12-08T11:59:09.184Z,49.75
2018-12-08T12:00:11.855Z,49.46
2018-12-08T12:01:14.371Z,49.05
2018-12-08T12:02:16.993Z,48.42
2018-12-08T12:03:19.475Z,48.31
2018-12-08T12:04:22.099Z,48.21
2018-12-08T12:05:24.655Z,48.46
2018-12-08T12:06:27.321Z,48.07
2018-12-08T12:07:29.794Z,48.38
2018-12-08T12:08:32.292Z,48.19
2018-12-08T12:09:34.800Z,48.19
2018-12-08T12:10:37.264Z,48.01
2018-12-08T12:11:39.757Z,47.52
2018-12-08T12:12:42.225Z,47.83
2018-12-08T12:13:44.716Z,48.17
2018-12-08T12:14:47.188Z,47.81
2018-12-08T12:15:49.671Z,47.71
2018-12-08T12:16:52.178Z,47.37
2018-12-08T12:17:54.671Z,47.75
2018-12-08T12:18:57.135Z,47.61
2018-12-08T12:19:59.654Z,47.44
2018-12-08T12:21:02.177Z,47.37
2018-12-08T12:22:04.669Z,47.25
2018-12-08T12:23:07.151Z,46.95
2018-12-08T12:24:09.625Z,47.75
2018-12-08T12:25:12.725Z,47.45
2018-12-08T12:26:15.217Z,47.59
2018-12-08T12:27:17.707Z,47.07
2018-12-08T12:28:20.199Z,47.59
2018-12-08T12:29:22.730Z,47.35
2018-12-08T12:30:25.508Z,47.72
2018-12-08T12:31:28.070Z,47.79
2018-12-08T12:32:30.569Z,47.84
2018-12-08T12:33:33.107Z,47.70
2018-12-08T12:34:35.594Z,48.41
2018-12-08T12:35:38.318Z,48.58
2018-12-08T12:36:40.976Z,48.18
2018-12-08T12:37:43.476Z,48.47
2018-12-08T12:38:45.944Z,48.63
2018-12-08T12:39:48.426Z,48.25
2018-12-08T12:40:50.888Z,48.66
2018-12-08T12:41:53.380Z,49.06
2018-12-08T12:42:56.883Z,48.42
2018-12-08T12:43:59.384Z,48.60
2018-12-08T12:45:01.861Z,48.70
2018-12-08T12:46:04.328Z,48.62
2018-12-08T12:47:06.811Z,48.68
2018-12-08T12:48:09.320Z,49.47
2018-12-08T12:49:11.801Z,49.56
2018-12-08T12:50:14.369Z,49.30
2018-12-08T12:51:16.837Z,49.66
2018-12-08T12:52:19.325Z,49.10
2018-12-08T12:53:22.349Z,49.63
2018-12-08T12:54:24.828Z,49.10
2018-12-08T12:55:27.316Z,49.56
2018-12-08T12:56:29.829Z,50.03
2018-12-08T12:57:32.325Z,49.66
2018-12-08T12:58:34.841Z,50.08
2018-12-08T12:59:37.315Z,49.32
2018-12-08T13:00:39.794Z,49.69
2018-12-08T13:01:42.323Z,50.16
2018-12-08T13:02:44.810Z,50.13
2018-12-08T13:03:47.302Z,50.04
2018-12-08T13:04:49.778Z,49.76
2018-12-08T13:05:52.351Z,50.40
2018-12-08T13:06:54.808Z,50.57
2018-12-08T13:07:57.301Z,50.78
2018-12-08T13:08:59.979Z,50.59
2018-12-08T13:10:02.511Z,50.66
2018-12-08T13:11:05.008Z,50.86
2018-12-08T13:12:07.663Z,51.09
2018-12-08T13:13:10.131Z,51.17
2018-12-08T13:14:13.322Z,51.06
2018-12-08T13:15:15.903Z,50.87
2018-12-08T13:16:18.454Z,51.20
2018-12-08T13:17:20.946Z,51.17
2018-12-08T13:18:23.418Z,51.50
2018-12-08T13:19:25.932Z,51.73
2018-12-08T13:20:28.390Z,51.73
2018-12-08T13:21:30.858Z,52.16
2018-12-08T13:22:33.334Z,51.59
2018-12-08T13:23:35.788Z,52.21
2018-12-08T13:24:38.260Z,52.17
2018-12-08T13:25:40.731Z,52.43
2018-12-08T13:26:43.303Z,52.41
2018-12-08T13:27:45.810Z,52.29